Time;durP1;ratioP1;P1;durP2;ratioP2;P2;SDS_P1;SDS_P2;PMS_P1;PMS_P2;Temp;Humidity;BMP_temperature;BMP_pressure;BME280_temperature;BME280_humidity;BME280_pressure;Samples;Min_cycle;Max_cycle;Signal;HPM_P1;HPM_P2
2023/10/23 00:01:06;;;;;;;12.68;11.13;;;8.10;99.90;;;;;;5013805;28;20057;-68
2023/10/23 00:03:31;;;;;;;12.80;10.25;;;8.10;99.90;;;;;;4997709;28;20128;-68
2023/10/23 00:05:57;;;;;;;14.38;10.35;;;8.10;99.90;;;;;;5013820;28;20048;-69
2023/10/23 00:08:23;;;;;;;14.23;12.02;;;8.10;99.90;;;;;;4996697;28;20046;-69
2023/10/23 00:10:49;;;;;;;17.88;14.68;;;8.10;99.90;;;;;;5013747;28;20038;-69
2023/10/23 00:13:14;;;;;;;14.90;12.30;;;8.10;99.90;;;;;;5013687;28;20038;-69
2023/10/23 00:15:40;;;;;;;16.00;12.38;;;8.10;99.90;;;;;;4997586;28;20045;-69
2023/10/23 00:18:06;;;;;;;15.45;13.43;;;8.10;99.90;;;;;;4997623;28;20077;-69
2023/10/23 00:20:32;;;;;;;14.50;11.75;;;8.10;99.90;;;;;;5013749;28;20100;-69
2023/10/23 00:22:57;;;;;;;15.45;11.75;;;8.00;99.90;;;;;;5013746;28;20095;-68
2023/10/23 00:25:23;;;;;;;16.60;13.95;;;8.00;99.90;;;;;;5013576;28;20375;-69
2023/10/23 00:27:49;;;;;;;15.20;13.60;;;8.00;99.90;;;;;;5013422;28;20052;-69
2023/10/23 00:30:14;;;;;;;22.52;18.70;;;8.00;99.90;;;;;;5013337;28;20046;-69
2023/10/23 00:32:40;;;;;;;17.80;14.95;;;8.00;99.90;;;;;;5013132;28;20526;-69
2023/10/23 00:35:06;;;;;;;15.10;12.98;;;8.00;99.90;;;;;;5013280;28;20050;-69
2023/10/23 00:37:32;;;;;;;14.32;12.30;;;7.90;99.90;;;;;;5013290;28;20038;-67
2023/10/23 00:39:57;;;;;;;17.75;15.80;;;8.00;99.90;;;;;;5013122;28;20432;-67
2023/10/23 00:42:23;;;;;;;17.80;15.48;;;8.00;99.90;;;;;;5013437;28;20097;-67
2023/10/23 00:44:49;;;;;;;19.27;14.98;;;7.90;99.90;;;;;;5013373;28;20042;-67
2023/10/23 00:47:16;;;;;;;18.05;14.10;;;7.90;99.90;;;;;;5013088;28;20042;-67
2023/10/23 00:49:43;;;;;;;14.40;12.85;;;7.90;99.90;;;;;;5013190;28;20045;-68
2023/10/23 00:52:09;;;;;;;22.85;17.42;;;7.90;99.90;;;;;;5013072;28;20096;-67
2023/10/23 00:54:36;;;;;;;16.95;14.07;;;7.90;99.90;;;;;;4996660;28;20048;-67
2023/10/23 00:57:03;;;;;;;17.20;14.25;;;7.90;99.90;;;;;;4996584;28;20080;-67
2023/10/23 00:59:30;;;;;;;18.77;15.20;;;7.90;99.90;;;;;;5013279;28;20053;-67
2023/10/23 01:01:56;;;;;;;18.65;14.95;;;7.90;99.90;;;;;;5012885;28;20077;-67
2023/10/23 01:04:23;;;;;;;14.93;12.27;;;7.90;99.90;;;;;;5013005;28;20132;-68
2023/10/23 01:06:50;;;;;;;17.75;13.98;;;7.90;99.90;;;;;;5013003;28;20041;-67
2023/10/23 01:09:16;;;;;;;16.95;13.02;;;7.80;99.90;;;;;;5012679;28;20037;-67
2023/10/23 01:11:42;;;;;;;15.00;12.40;;;7.80;99.90;;;;;;5012564;28;20038;-67
2023/10/23 01:14:08;;;;;;;17.42;13.80;;;7.80;99.90;;;;;;5012872;28;20049;-67
2023/10/23 01:16:34;;;;;;;17.98;16.00;;;7.80;99.90;;;;;;5012692;28;20042;-68
2023/10/23 01:19:00;;;;;;;16.13;13.32;;;7.80;99.90;;;;;;5012447;28;20176;-67
2023/10/23 01:21:25;;;;;;;15.90;13.15;;;7.80;99.90;;;;;;4996172;28;20042;-67
2023/10/23 01:23:52;;;;;;;16.58;13.27;;;7.70;99.90;;;;;;5012454;28;20045;-67
2023/10/23 01:26:18;;;;;;;15.60;13.15;;;7.70;99.90;;;;;;5012458;28;20120;-67
2023/10/23 01:28:43;;;;;;;15.18;12.80;;;7.70;99.90;;;;;;5012738;28;20537;-67
2023/10/23 01:31:09;;;;;;;16.02;13.23;;;7.70;99.90;;;;;;5012293;28;20134;-67
2023/10/23 01:33:36;;;;;;;14.60;12.55;;;7.70;99.90;;;;;;5012042;28;20108;-67
2023/10/23 01:36:02;;;;;;;14.40;12.20;;;7.70;99.90;;;;;;5012515;28;20471;-67
2023/10/23 01:38:27;;;;;;;14.27;12.65;;;7.70;99.90;;;;;;5012233;28;20037;-67
2023/10/23 01:40:53;;;;;;;15.77;13.07;;;7.60;99.90;;;;;;5012227;28;20041;-67
2023/10/23 01:43:19;;;;;;;16.55;12.48;;;7.60;99.90;;;;;;5012214;28;20095;-67
2023/10/23 01:45:47;;;;;;;13.35;11.38;;;7.60;99.90;;;;;;5012107;28;20108;-67
2023/10/23 01:48:13;;;;;;;12.38;10.27;;;7.60;99.90;;;;;;5012224;28;20111;-69
2023/10/23 01:50:39;;;;;;;12.23;10.25;;;7.60;99.90;;;;;;5012109;28;20490;-69
2023/10/23 01:53:05;;;;;;;13.57;10.45;;;7.50;99.90;;;;;;4996122;28;20065;-69
2023/10/23 01:55:30;;;;;;;12.43;10.43;;;7.50;99.90;;;;;;5012055;28;20080;-70
2023/10/23 01:57:57;;;;;;;11.27;9.77;;;7.50;99.90;;;;;;5012016;28;20456;-70
2023/10/23 02:00:24;;;;;;;13.20;10.77;;;7.50;99.90;;;;;;5028749;28;20064;-70
2023/10/23 02:02:50;;;;;;;13.48;9.52;;;7.50;99.90;;;;;;5011974;28;20054;-70
2023/10/23 02:05:15;;;;;;;12.27;10.70;;;7.50;99.90;;;;;;5012065;28;20043;-70
2023/10/23 02:07:41;;;;;;;11.73;9.27;;;7.50;99.90;;;;;;5011897;28;20046;-70
2023/10/23 02:10:07;;;;;;;11.07;9.32;;;7.50;99.90;;;;;;5011941;28;20092;-69
2023/10/23 02:12:33;;;;;;;13.20;9.40;;;7.50;99.90;;;;;;5012541;28;20155;-69
2023/10/23 02:14:59;;;;;;;11.95;9.70;;;7.50;99.90;;;;;;5011853;28;20073;-70
2023/10/23 02:17:25;;;;;;;10.18;9.02;;;7.50;99.90;;;;;;4995697;28;20088;-70
2023/10/23 02:19:50;;;;;;;10.77;9.05;;;7.50;99.90;;;;;;5011925;28;20042;-69
2023/10/23 02:22:18;;;;;;;12.73;9.85;;;7.50;99.90;;;;;;5011774;28;20045;-69
2023/10/23 02:24:44;;;;;;;11.98;9.20;;;7.50;99.90;;;;;;5012297;28;20089;-69
2023/10/23 02:27:10;;;;;;;11.60;9.00;;;7.40;99.90;;;;;;5011827;28;20053;-70
2023/10/23 02:29:36;;;;;;;13.45;8.88;;;7.40;99.90;;;;;;5011756;28;20049;-69
2023/10/23 02:32:02;;;;;;;12.55;9.52;;;7.40;99.90;;;;;;5014022;28;20049;-70
2023/10/23 02:34:27;;;;;;;10.82;9.27;;;7.40;99.90;;;;;;5031962;28;20074;-69
2023/10/23 02:36:53;;;;;;;13.40;11.13;;;7.40;99.90;;;;;;5015454;28;20037;-70
2023/10/23 02:39:19;;;;;;;13.35;10.65;;;7.40;99.90;;;;;;5015445;28;20041;-70
2023/10/23 02:41:45;;;;;;;11.63;9.90;;;7.30;99.90;;;;;;5015628;28;20038;-70
2023/10/23 02:44:11;;;;;;;13.80;11.15;;;7.40;99.90;;;;;;5015659;28;20033;-70
2023/10/23 02:46:38;;;;;;;13.68;11.63;;;7.40;99.90;;;;;;4999063;28;20034;-70
2023/10/23 02:49:05;;;;;;;13.23;11.15;;;7.30;99.90;;;;;;5015487;28;20045;-70
2023/10/23 02:51:31;;;;;;;12.98;10.95;;;7.30;99.90;;;;;;5015224;28;20049;-70
2023/10/23 02:53:56;;;;;;;16.17;14.15;;;7.30;99.90;;;;;;5015413;28;20037;-70
2023/10/23 02:56:22;;;;;;;14.15;11.68;;;7.30;99.90;;;;;;5015272;28;20041;-70
2023/10/23 02:58:48;;;;;;;21.73;17.63;;;7.30;99.90;;;;;;4998835;28;20453;-69
2023/10/23 03:01:20;;;;;;;16.58;14.02;;;7.30;99.90;;;;;;5031498;28;20483;-70
2023/10/23 03:03:49;;;;;;;14.15;11.63;;;7.30;99.90;;;;;;5015431;28;20050;-70
2023/10/23 03:06:15;;;;;;;15.25;12.82;;;7.30;99.90;;;;;;5015257;28;20506;-70
2023/10/23 03:08:41;;;;;;;19.98;16.33;;;7.30;99.90;;;;;;5015210;28;20045;-70
2023/10/23 03:11:07;;;;;;;18.35;15.93;;;7.30;99.90;;;;;;4998562;28;20042;-70
2023/10/23 03:13:34;;;;;;;16.38;12.80;;;7.30;99.90;;;;;;5015087;28;20044;-70
2023/10/23 03:16:00;;;;;;;20.65;15.05;;;7.30;99.90;;;;;;4998461;28;20212;-69
2023/10/23 03:18:26;;;;;;;17.67;13.55;;;7.20;99.90;;;;;;5014820;28;20038;-70
2023/10/23 03:20:52;;;;;;;15.82;12.80;;;7.20;99.90;;;;;;5014793;28;20128;-70
2023/10/23 03:23:17;;;;;;;18.38;13.45;;;7.10;99.90;;;;;;5014727;28;20454;-70
2023/10/23 03:25:44;;;;;;;14.80;12.63;;;7.20;99.90;;;;;;4998361;28;20042;-70
2023/10/23 03:28:10;;;;;;;13.52;11.00;;;7.10;99.90;;;;;;5014655;28;20073;-70
2023/10/23 03:30:37;;;;;;;14.57;11.82;;;7.10;99.90;;;;;;5014667;28;20069;-70
2023/10/23 03:33:02;;;;;;;26.48;18.95;;;7.10;99.90;;;;;;5014291;28;20168;-70
2023/10/23 03:35:29;;;;;;;19.35;15.07;;;7.10;99.90;;;;;;5014533;28;20512;-69
2023/10/23 03:37:55;;;;;;;17.42;15.07;;;7.00;99.90;;;;;;4998196;28;20048;-69
2023/10/23 03:40:21;;;;;;;17.92;15.60;;;7.00;99.90;;;;;;5014577;28;20124;-69
2023/10/23 03:42:50;;;;;;;18.30;15.45;;;7.00;99.90;;;;;;4997780;28;20074;-69
2023/10/23 03:45:16;;;;;;;17.77;14.80;;;7.00;99.90;;;;;;5014524;28;20046;-69
2023/10/23 03:47:42;;;;;;;20.65;17.27;;;7.00;99.90;;;;;;5014316;28;20095;-70
2023/10/23 03:50:08;;;;;;;18.67;15.43;;;7.00;99.90;;;;;;5014073;28;20081;-70
2023/10/23 03:52:33;;;;;;;25.05;18.70;;;7.00;99.90;;;;;;5014380;28;20099;-70
2023/10/23 03:54:59;;;;;;;19.58;16.30;;;7.00;99.90;;;;;;5014259;28;20046;-70
2023/10/23 03:57:25;;;;;;;26.08;21.48;;;7.00;99.90;;;;;;5014043;28;20042;-69
2023/10/23 03:59:50;;;;;;;26.83;21.75;;;7.00;99.90;;;;;;5013994;28;20509;-70
2023/10/23 04:02:16;;;;;;;22.20;18.05;;;7.00;99.90;;;;;;4997652;28;20057;-70
2023/10/23 04:04:42;;;;;;;22.33;18.13;;;7.00;99.90;;;;;;5013765;28;20045;-70
2023/10/23 04:07:07;;;;;;;23.15;19.20;;;7.00;99.90;;;;;;5014119;28;20049;-70
2023/10/23 04:09:33;;;;;;;22.95;18.55;;;7.00;99.90;;;;;;5013700;28;20071;-70
2023/10/23 04:11:59;;;;;;;28.10;21.63;;;7.00;99.90;;;;;;5013952;28;20087;-70
2023/10/23 04:14:24;;;;;;;22.20;18.23;;;7.00;99.90;;;;;;5013617;28;20038;-69
2023/10/23 04:16:50;;;;;;;20.70;18.42;;;7.00;99.90;;;;;;4997373;28;20038;-70
2023/10/23 04:19:16;;;;;;;24.63;20.05;;;7.00;99.90;;;;;;5013752;28;20046;-70
2023/10/23 04:21:41;;;;;;;19.70;17.27;;;7.00;99.90;;;;;;5013529;28;20041;-70
2023/10/23 04:24:09;;;;;;;20.35;17.20;;;7.00;99.90;;;;;;5013498;28;20129;-70
2023/10/23 04:26:35;;;;;;;20.27;17.42;;;7.00;99.90;;;;;;5013471;28;20046;-70
2023/10/23 04:29:01;;;;;;;19.70;16.17;;;7.00;99.90;;;;;;5013687;28;20124;-70
2023/10/23 04:31:27;;;;;;;19.95;15.55;;;7.00;99.90;;;;;;5013266;28;20133;-70
2023/10/23 04:33:52;;;;;;;21.13;17.27;;;7.00;99.90;;;;;;4996932;28;20053;-70
2023/10/23 04:36:19;;;;;;;17.02;14.35;;;7.00;99.90;;;;;;5013281;28;20413;-70
2023/10/23 04:38:44;;;;;;;17.45;14.10;;;7.00;99.90;;;;;;5013274;28;20049;-70
2023/10/23 04:41:10;;;;;;;17.75;14.85;;;6.90;99.90;;;;;;5013070;28;20076;-70
2023/10/23 04:43:36;;;;;;;19.95;16.08;;;6.90;99.90;;;;;;5013426;28;20128;-70
2023/10/23 04:46:01;;;;;;;23.08;16.35;;;7.00;99.90;;;;;;5013105;28;20112;-70
2023/10/23 04:48:27;;;;;;;17.48;14.02;;;6.90;99.90;;;;;;5013108;28;20506;-70
2023/10/23 04:50:59;;;;;;;21.63;17.42;;;6.90;99.90;;;;;;5013052;28;20096;-69
2023/10/23 04:53:25;;;;;;;20.05;16.90;;;6.90;99.90;;;;;;5012981;28;20041;-69
2023/10/23 04:55:51;;;;;;;25.38;20.25;;;6.90;99.90;;;;;;5012487;28;20443;-70
2023/10/23 04:58:16;;;;;;;15.82;14.07;;;6.90;99.90;;;;;;5012876;28;20042;-70
2023/10/23 05:00:44;;;;;;;19.48;14.65;;;6.80;99.90;;;;;;5013056;28;20375;-70
2023/10/23 05:03:09;;;;;;;18.48;14.57;;;6.80;99.90;;;;;;4996689;28;20045;-70
2023/10/23 05:05:38;;;;;;;17.33;14.35;;;6.80;99.90;;;;;;5012820;28;20537;-70
2023/10/23 05:08:04;;;;;;;17.00;13.75;;;6.80;99.90;;;;;;5012862;28;20041;-70
2023/10/23 05:10:30;;;;;;;18.25;14.85;;;6.80;99.90;;;;;;4996371;28;20045;-70
2023/10/23 05:12:56;;;;;;;17.00;14.27;;;6.80;99.90;;;;;;5012763;28;20038;-70
2023/10/23 05:15:22;;;;;;;30.73;22.73;;;6.80;99.90;;;;;;5012634;28;20041;-70
2023/10/23 05:17:48;;;;;;;20.50;17.05;;;6.80;99.90;;;;;;5012848;28;20033;-68
2023/10/23 05:20:14;;;;;;;28.08;21.80;;;6.80;99.90;;;;;;5012644;28;20052;-67
2023/10/23 05:22:40;;;;;;;25.42;19.10;;;6.70;99.90;;;;;;5012493;28;20053;-67
2023/10/23 05:25:08;;;;;;;28.42;20.80;;;6.70;99.90;;;;;;4996405;28;20045;-67
2023/10/23 05:27:35;;;;;;;26.58;20.20;;;6.70;99.90;;;;;;5012746;28;20535;-67
2023/10/23 05:30:03;;;;;;;30.35;22.80;;;6.80;99.90;;;;;;5012305;28;20057;-67
2023/10/23 05:32:29;;;;;;;22.83;18.33;;;6.80;99.90;;;;;;4996063;28;20058;-67
2023/10/23 05:34:55;;;;;;;22.10;18.15;;;6.80;99.90;;;;;;5012505;28;20038;-67
2023/10/23 05:37:21;;;;;;;23.42;19.30;;;6.70;99.90;;;;;;5012377;28;20052;-68
2023/10/23 05:39:46;;;;;;;33.05;23.90;;;6.70;99.90;;;;;;4996291;28;20049;-68
2023/10/23 05:42:13;;;;;;;26.27;20.92;;;6.80;99.90;;;;;;5012077;28;20081;-68
2023/10/23 05:44:38;;;;;;;28.60;22.30;;;6.80;99.90;;;;;;5012143;28;20042;-67
2023/10/23 05:47:04;;;;;;;29.42;22.00;;;6.80;99.90;;;;;;5012575;28;20042;-67
2023/10/23 05:49:30;;;;;;;32.80;23.80;;;6.80;99.90;;;;;;5012339;28;20125;-67
2023/10/23 05:51:55;;;;;;;31.40;24.65;;;6.80;99.90;;;;;;5012018;28;20034;-68
2023/10/23 05:54:21;;;;;;;26.38;21.15;;;6.80;99.90;;;;;;5012116;28;20069;-67
2023/10/23 05:56:47;;;;;;;22.90;18.73;;;6.90;99.90;;;;;;5011994;28;20383;-67
2023/10/23 05:59:12;;;;;;;25.85;19.50;;;6.90;99.90;;;;;;4996002;28;20041;-67
2023/10/23 06:01:38;;;;;;;34.97;24.20;;;6.90;99.90;;;;;;5011997;28;20049;-67
2023/10/23 06:04:04;;;;;;;43.75;28.55;;;6.90;99.90;;;;;;5012068;28;20482;-67
2023/10/23 06:06:30;;;;;;;32.70;24.63;;;6.90;99.90;;;;;;5013326;28;20053;-67
2023/10/23 06:08:56;;;;;;;23.77;19.85;;;6.90;99.90;;;;;;5016051;28;20061;-68
2023/10/23 06:11:23;;;;;;;31.80;24.15;;;6.90;99.90;;;;;;4999569;28;20046;-67
2023/10/23 06:13:49;;;;;;;29.10;22.05;;;6.90;99.90;;;;;;5015799;28;20124;-68
2023/10/23 06:16:15;;;;;;;30.60;22.92;;;6.90;99.90;;;;;;5015827;28;20466;-68
2023/10/23 06:18:40;;;;;;;35.85;25.10;;;6.90;99.90;;;;;;5015542;28;20042;-68
2023/10/23 06:21:07;;;;;;;30.23;23.83;;;6.90;99.90;;;;;;5016142;28;20046;-68
2023/10/23 06:23:34;;;;;;;30.33;21.52;;;6.90;99.90;;;;;;5015745;28;20125;-68
2023/10/23 06:25:59;;;;;;;28.02;22.30;;;6.90;99.90;;;;;;5016202;28;20057;-70
2023/10/23 06:28:28;;;;;;;36.92;25.33;;;6.90;99.90;;;;;;4999449;28;20054;-70
2023/10/23 06:30:54;;;;;;;35.80;26.17;;;6.90;99.90;;;;;;4999186;28;20042;-70
2023/10/23 06:33:20;;;;;;;31.70;22.92;;;6.90;99.90;;;;;;5015463;28;20050;-71
2023/10/23 06:35:45;;;;;;;34.00;25.55;;;6.90;99.90;;;;;;5000299;28;20046;-71
2023/10/23 06:38:11;;;;;;;27.52;21.63;;;6.90;99.90;;;;;;5015967;28;20124;-70
2023/10/23 06:40:37;;;;;;;30.30;22.80;;;6.90;99.90;;;;;;5015809;28;20045;-71
2023/10/23 06:43:02;;;;;;;34.22;25.88;;;6.90;99.90;;;;;;5015793;28;20141;-71
2023/10/23 06:45:28;;;;;;;31.20;22.45;;;6.90;99.90;;;;;;5015602;28;20041;-70
2023/10/23 06:47:54;;;;;;;32.20;23.58;;;6.90;99.90;;;;;;5015424;28;20052;-70
2023/10/23 06:50:19;;;;;;;27.92;21.23;;;6.90;99.90;;;;;;4999314;28;20135;-71
2023/10/23 06:52:46;;;;;;;30.50;22.83;;;6.90;99.90;;;;;;5015935;28;20398;-70
2023/10/23 06:55:12;;;;;;;25.45;19.77;;;7.00;99.90;;;;;;4999555;28;20117;-71
2023/10/23 06:57:38;;;;;;;28.70;21.13;;;7.00;99.90;;;;;;5016012;28;20038;-71
2023/10/23 07:00:06;;;;;;;25.60;19.65;;;7.00;99.90;;;;;;5026949;28;20128;-71
2023/10/23 07:02:32;;;;;;;26.42;20.42;;;7.00;99.90;;;;;;5007683;28;20051;-71
2023/10/23 07:04:58;;;;;;;29.85;22.08;;;7.00;99.90;;;;;;5032432;28;20057;-71
2023/10/23 07:07:24;;;;;;;27.92;22.08;;;7.00;99.90;;;;;;5032100;28;20049;-71
2023/10/23 07:09:53;;;;;;;52.70;30.52;;;7.00;99.90;;;;;;5035509;28;20046;-71
2023/10/23 07:12:19;;;;;;;54.15;31.77;;;7.10;99.90;;;;;;5003229;28;20061;-70
2023/10/23 07:14:44;;;;;;;27.63;22.08;;;7.10;99.90;;;;;;5031383;28;20045;-70
2023/10/23 07:17:10;;;;;;;24.08;18.52;;;7.10;99.90;;;;;;5034252;28;20128;-71
2023/10/23 07:19:36;;;;;;;24.27;19.58;;;7.10;99.90;;;;;;5029084;28;20046;-70
2023/10/23 07:22:01;;;;;;;20.23;16.70;;;7.10;99.90;;;;;;5016144;28;20034;-71
2023/10/23 07:24:27;;;;;;;22.80;18.33;;;7.10;99.90;;;;;;4999488;28;20041;-71
2023/10/23 07:26:53;;;;;;;23.48;18.23;;;7.20;99.90;;;;;;5015278;28;20069;-71
2023/10/23 07:29:18;;;;;;;26.80;20.92;;;7.20;99.90;;;;;;5005699;28;20038;-71
2023/10/23 07:31:44;;;;;;;30.40;20.38;;;7.20;99.90;;;;;;5034974;28;20049;-71
2023/10/23 07:34:10;;;;;;;26.25;17.10;;;7.20;99.90;;;;;;5034570;28;20057;-71
2023/10/23 07:36:37;;;;;;;22.83;18.58;;;7.20;99.90;;;;;;5035752;28;20124;-71
2023/10/23 07:39:03;;;;;;;23.67;19.33;;;7.20;99.90;;;;;;5034645;28;20073;-71
2023/10/23 07:41:30;;;;;;;24.25;19.95;;;7.20;99.90;;;;;;5034828;28;20048;-71
2023/10/23 07:43:56;;;;;;;23.02;19.20;;;7.20;99.90;;;;;;5034996;28;20045;-71
2023/10/23 07:46:22;;;;;;;19.95;17.08;;;7.20;99.90;;;;;;5035566;28;20052;-71
2023/10/23 07:48:47;;;;;;;28.70;17.10;;;7.30;99.90;;;;;;5035028;28;20042;-70
2023/10/23 07:51:13;;;;;;;35.78;18.38;;;7.30;99.90;;;;;;5034259;28;20048;-71
2023/10/23 07:53:39;;;;;;;24.10;16.52;;;7.40;99.90;;;;;;5034460;28;20037;-70
2023/10/23 07:56:05;;;;;;;25.80;17.67;;;7.40;99.90;;;;;;5034520;28;20040;-70
2023/10/23 07:58:31;;;;;;;28.17;17.83;;;7.40;99.90;;;;;;5034483;28;20033;-71
2023/10/23 08:01:04;;;;;;;43.50;22.67;;;7.40;99.90;;;;;;5034402;28;20041;-71
2023/10/23 08:03:30;;;;;;;28.80;22.50;;;7.50;99.90;;;;;;5034453;28;20049;-71
2023/10/23 08:05:56;;;;;;;26.70;21.88;;;7.50;99.90;;;;;;5034519;28;20170;-71
2023/10/23 08:08:21;;;;;;;37.38;26.90;;;7.70;99.90;;;;;;5034299;28;20041;-71
2023/10/23 08:10:47;;;;;;;30.48;24.48;;;7.80;99.90;;;;;;5034211;28;20041;-71
2023/10/23 08:13:13;;;;;;;30.42;23.90;;;7.90;99.90;;;;;;5034117;28;20064;-71
2023/10/23 08:15:40;;;;;;;27.58;22.20;;;7.90;99.90;;;;;;5033771;28;20084;-71
2023/10/23 08:18:06;;;;;;;28.58;22.60;;;7.90;99.90;;;;;;5033833;28;20064;-71
2023/10/23 08:20:35;;;;;;;24.80;19.25;;;7.90;99.90;;;;;;5033560;28;20042;-71
2023/10/23 08:23:00;;;;;;;68.88;20.27;;;7.90;99.90;;;;;;5034081;28;20098;-71
2023/10/23 08:25:26;;;;;;;33.22;20.60;;;8.00;99.90;;;;;;5033340;28;20132;-71
2023/10/23 08:27:52;;;;;;;40.50;23.00;;;8.10;99.90;;;;;;5033990;28;20053;-71
2023/10/23 08:30:18;;;;;;;40.28;22.40;;;8.00;99.90;;;;;;5014931;28;20045;-72
2023/10/23 08:32:44;;;;;;;84.28;26.38;;;8.00;99.90;;;;;;5033079;28;20053;-70
2023/10/23 08:35:10;;;;;;;40.25;24.27;;;8.10;99.90;;;;;;5020194;28;20534;-71
2023/10/23 08:37:35;;;;;;;204.23;33.00;;;8.10;99.90;;;;;;4997678;28;20429;-71
2023/10/23 08:40:06;;;;;;;50.78;23.75;;;8.20;99.90;;;;;;5014446;28;20117;-70
2023/10/23 08:42:35;;;;;;;61.92;22.73;;;8.30;99.90;;;;;;5013481;28;20042;-71
2023/10/23 08:45:02;;;;;;;65.45;22.02;;;8.40;99.90;;;;;;4998112;28;20048;-71
2023/10/23 08:47:28;;;;;;;95.80;23.90;;;8.50;99.90;;;;;;5013872;28;20046;-71
2023/10/23 08:49:56;;;;;;;92.18;21.85;;;8.60;99.90;;;;;;5013472;28;20046;-70
2023/10/23 08:52:24;;;;;;;57.92;20.27;;;8.70;99.90;;;;;;5013405;28;20088;-71
2023/10/23 08:54:52;;;;;;;88.18;20.58;;;8.80;99.90;;;;;;5013442;28;20099;-71
2023/10/23 08:57:20;;;;;;;88.10;23.08;;;8.80;99.90;;;;;;4999178;28;20116;-71
2023/10/23 08:59:46;;;;;;;101.35;20.15;;;8.80;99.90;;;;;;5013575;28;20046;-71
2023/10/23 09:02:12;;;;;;;61.33;20.45;;;8.90;99.90;;;;;;4980561;28;20398;-71
2023/10/23 09:04:37;;;;;;;75.22;19.58;;;9.00;99.90;;;;;;5013462;28;20041;-71
2023/10/23 09:07:03;;;;;;;69.20;20.98;;;9.10;99.90;;;;;;5013270;28;20570;-71
2023/10/23 09:09:30;;;;;;;69.45;18.58;;;9.10;99.90;;;;;;5013527;28;20568;-71
2023/10/23 09:11:57;;;;;;;62.55;18.42;;;9.20;99.90;;;;;;5013220;28;20049;-71
2023/10/23 09:14:27;;;;;;;82.38;18.48;;;9.20;99.90;;;;;;4996664;28;20048;-71
2023/10/23 09:16:54;;;;;;;76.95;17.92;;;9.30;99.90;;;;;;5013429;28;20041;-73
2023/10/23 09:19:39;;;;;;;92.65;19.55;;;9.30;99.90;;;;;;5013156;28;20115;-71
2023/10/23 09:22:06;;;;;;;71.65;20.73;;;9.30;99.90;;;;;;4997034;28;20044;-71
2023/10/23 09:24:32;;;;;;;54.40;21.33;;;9.40;99.90;;;;;;4996710;28;20156;-71
2023/10/23 09:26:58;;;;;;;91.18;22.38;;;9.50;99.90;;;;;;5012935;28;20077;-71
2023/10/23 09:29:26;;;;;;;69.07;18.40;;;9.50;99.90;;;;;;4996563;28;20153;-71
2023/10/23 09:31:53;;;;;;;72.85;19.42;;;9.60;99.90;;;;;;5012574;28;20045;-71
2023/10/23 09:34:21;;;;;;;71.82;21.00;;;9.60;99.90;;;;;;5012632;28;20050;-72
2023/10/23 09:36:50;;;;;;;101.47;24.88;;;9.60;99.90;;;;;;5012414;28;20136;-72
2023/10/23 09:39:21;;;;;;;52.60;21.33;;;9.60;99.90;;;;;;5012776;28;20041;-71
2023/10/23 09:41:47;;;;;;;89.47;24.42;;;9.70;99.90;;;;;;5012372;28;20057;-72
2023/10/23 09:44:14;;;;;;;211.70;30.33;;;9.80;99.90;;;;;;5012818;28;20050;-72
2023/10/23 09:46:42;;;;;;;92.30;22.83;;;9.90;99.90;;;;;;5012608;28;20042;-71
2023/10/23 09:49:09;;;;;;;40.25;21.92;;;9.90;99.90;;;;;;5012230;28;20046;-73
2023/10/23 09:51:38;;;;;;;50.38;22.02;;;10.00;99.90;;;;;;5012273;28;20045;-71
2023/10/23 09:54:20;;;;;;;37.78;19.40;;;10.00;99.90;;;;;;5012361;28;20042;-71
2023/10/23 09:56:51;;;;;;;126.00;23.85;;;10.00;99.90;;;;;;5012625;28;20486;-69
2023/10/23 09:59:20;;;;;;;77.00;20.80;;;10.00;99.90;;;;;;5012415;28;20042;-68
2023/10/23 10:01:50;;;;;;;41.22;18.60;;;10.00;99.90;;;;;;5012401;28;20676;-69
2023/10/23 10:04:50;;;;;;;47.45;22.20;;;10.10;99.90;;;;;;5012192;28;20045;-69
2023/10/23 10:07:26;;;;;;;35.05;18.40;;;10.10;99.90;;;;;;4992016;28;20528;-69
2023/10/23 10:09:53;;;;;;;25.77;17.90;;;10.10;99.90;;;;;;4995625;28;20135;-69
2023/10/23 10:12:19;;;;;;;23.00;15.40;;;10.10;99.90;;;;;;5011991;28;20112;-68
2023/10/23 10:14:46;;;;;;;22.13;16.50;;;10.10;99.90;;;;;;4996101;28;20491;-69
2023/10/23 10:17:16;;;;;;;30.77;17.08;;;10.20;99.90;;;;;;5012433;28;20053;-68
2023/10/23 10:19:43;;;;;;;25.52;18.02;;;10.20;99.90;;;;;;5012319;28;20052;-69
2023/10/23 10:22:23;;;;;;;26.00;17.58;;;10.20;99.90;;;;;;5012722;28;20399;-71
2023/10/23 10:24:52;;;;;;;23.92;17.48;;;10.20;99.90;;;;;;5012646;28;20083;-68
2023/10/23 10:27:18;;;;;;;26.88;20.33;;;10.20;99.90;;;;;;4997128;28;20042;-69
2023/10/23 10:29:44;;;;;;;25.75;20.42;;;10.20;99.90;;;;;;5012383;28;20038;-69
2023/10/23 10:32:10;;;;;;;29.40;21.85;;;10.20;99.90;;;;;;4995972;28;20037;-68
2023/10/23 10:34:47;;;;;;;32.72;22.52;;;10.20;99.90;;;;;;5012453;28;20100;-69
2023/10/23 10:37:13;;;;;;;30.85;22.13;;;10.20;99.90;;;;;;5013152;28;20367;-69
2023/10/23 10:39:52;;;;;;;32.35;22.70;;;10.30;99.90;;;;;;5012339;28;20042;-69
2023/10/23 10:42:20;;;;;;;46.65;26.40;;;10.30;99.90;;;;;;4995912;28;20042;-69
2023/10/23 10:44:55;;;;;;;52.88;27.42;;;10.30;99.90;;;;;;5011843;28;20042;-69
2023/10/23 10:47:45;;;;;;;56.92;31.20;;;10.20;99.90;;;;;;4995614;28;20033;-68
2023/10/23 10:50:11;;;;;;;44.10;27.90;;;10.20;99.90;;;;;;5011567;28;20050;-69
2023/10/23 10:52:43;;;;;;;35.90;24.25;;;10.20;99.90;;;;;;4980529;28;20521;-68
2023/10/23 10:55:10;;;;;;;34.60;23.77;;;10.30;99.90;;;;;;5015269;28;20088;-68
2023/10/23 10:57:40;;;;;;;41.33;26.88;;;10.40;99.90;;;;;;5015293;28;20038;-69
2023/10/23 11:00:07;;;;;;;38.95;26.42;;;10.40;99.90;;;;;;4998985;28;20049;-69
2023/10/23 11:02:32;;;;;;;40.03;26.88;;;10.50;99.90;;;;;;5015261;28;20045;-69
2023/10/23 11:04:58;;;;;;;40.85;28.67;;;10.50;99.90;;;;;;5015225;28;20046;-69
2023/10/23 11:07:26;;;;;;;39.97;28.40;;;10.60;99.90;;;;;;4998924;28;20144;-69
2023/10/23 11:09:53;;;;;;;43.97;28.92;;;10.70;99.90;;;;;;5015279;28;20472;-68
2023/10/23 11:12:19;;;;;;;44.80;30.00;;;10.70;99.90;;;;;;4999155;28;20038;-69
2023/10/23 11:14:47;;;;;;;42.58;28.80;;;10.80;99.90;;;;;;5015367;28;20038;-68
2023/10/23 11:17:13;;;;;;;44.38;30.77;;;10.90;99.90;;;;;;5021976;28;20044;-68
2023/10/23 11:19:41;;;;;;;44.67;31.33;;;10.90;99.90;;;;;;5018054;28;20037;-68
2023/10/23 11:22:15;;;;;;;46.15;33.75;;;10.90;99.90;;;;;;5034468;28;20041;-68
2023/10/23 11:24:42;;;;;;;42.65;30.77;;;10.90;99.90;;;;;;5034651;28;20119;-68
2023/10/23 11:27:08;;;;;;;43.08;31.33;;;10.90;99.90;;;;;;5018160;28;20386;-69
2023/10/23 11:29:52;;;;;;;39.22;30.13;;;11.00;99.90;;;;;;5018319;28;20041;-69
2023/10/23 11:32:17;;;;;;;44.17;32.55;;;11.00;99.90;;;;;;5017807;28;20095;-69
2023/10/23 11:34:47;;;;;;;35.22;28.10;;;11.10;99.90;;;;;;5017351;28;20498;-69
2023/10/23 11:37:13;;;;;;;37.42;29.90;;;11.10;99.90;;;;;;5030393;28;20081;-69
2023/10/23 11:39:42;;;;;;;40.13;32.40;;;11.10;99.90;;;;;;5025004;28;20464;-69
2023/10/23 11:42:08;;;;;;;39.65;30.55;;;11.10;99.90;;;;;;5003288;28;20042;-69
2023/10/23 11:44:36;;;;;;;39.33;32.30;;;11.10;99.90;;;;;;5014408;28;20037;-68
2023/10/23 11:47:07;;;;;;;39.55;31.48;;;11.10;99.90;;;;;;5014250;28;20044;-69
2023/10/23 11:49:33;;;;;;;40.50;31.13;;;11.10;99.90;;;;;;4997771;28;20080;-69
2023/10/23 11:52:00;;;;;;;44.50;34.00;;;11.20;99.90;;;;;;4997705;28;20041;-69
2023/10/23 11:54:27;;;;;;;43.40;33.55;;;11.20;99.90;;;;;;4997593;28;20121;-69
2023/10/23 11:56:56;;;;;;;37.78;29.17;;;11.30;99.90;;;;;;5013988;28;20045;-69
2023/10/23 11:59:21;;;;;;;41.15;31.02;;;11.40;99.90;;;;;;4997590;28;20041;-69
2023/10/23 12:01:49;;;;;;;36.75;29.25;;;11.40;99.90;;;;;;4997879;28;20037;-69
2023/10/23 12:04:15;;;;;;;42.15;33.42;;;11.40;99.90;;;;;;5013977;28;20553;-69
2023/10/23 12:06:42;;;;;;;41.65;31.92;;;11.40;99.90;;;;;;5014116;28;20479;-69
2023/10/23 12:09:10;;;;;;;45.65;35.53;;;11.50;99.90;;;;;;5014052;28;20050;-69
2023/10/23 12:11:36;;;;;;;44.80;34.70;;;11.40;99.90;;;;;;5013813;28;20042;-69
2023/10/23 12:14:03;;;;;;;53.90;39.38;;;11.50;99.90;;;;;;5013527;28;20048;-69
2023/10/23 12:16:33;;;;;;;46.15;34.60;;;11.50;99.90;;;;;;4981483;28;20088;-69
2023/10/23 12:18:59;;;;;;;52.17;38.90;;;11.50;99.90;;;;;;5013754;28;20573;-69
2023/10/23 12:21:25;;;;;;;51.78;38.70;;;11.50;99.90;;;;;;5013421;28;20041;-70
2023/10/23 12:23:52;;;;;;;68.18;46.30;;;11.60;99.90;;;;;;5013449;28;20124;-69
2023/10/23 12:26:18;;;;;;;68.80;48.60;;;11.50;99.90;;;;;;5013594;28;20041;-70
2023/10/23 12:28:44;;;;;;;64.50;47.30;;;11.60;99.90;;;;;;5013583;28;20041;-70
2023/10/23 12:31:10;;;;;;;70.82;50.45;;;11.60;99.90;;;;;;5013243;28;20100;-70
2023/10/23 12:33:36;;;;;;;64.75;44.83;;;11.70;99.90;;;;;;5013541;28;20454;-70